sensor_id;sensor_type;location;lat;lon;timestamp;P1;durP1;ratioP1;P2;durP2;ratioP2
47713;SDS011;33475;46.614;13.888;2022-09-01T00:01:55;2.45;;;1.77;;
47713;SDS011;33475;46.614;13.888;2022-09-01T00:04:22;1.83;;;1.52;;
47713;SDS011;33475;46.614;13.888;2022-09-01T00:06:51;1.95;;;1.83;;
47713;SDS011;33475;46.614;13.888;2022-09-01T00:09:19;2.30;;;2.00;;
47713;SDS011;33475;46.614;13.888;2022-09-01T00:11:48;1.67;;;1.58;;
47713;SDS011;33475;46.614;13.888;2022-09-01T00:14:14;2.50;;;1.80;;
47713;SDS011;33475;46.614;13.888;2022-09-01T00:16:40;2.22;;;1.95;;
47713;SDS011;33475;46.614;13.888;2022-09-01T00:19:06;1.45;;;1.35;;
47713;SDS011;33475;46.614;13.888;2022-09-01T00:21:36;1.65;;;1.55;;
47713;SDS011;33475;46.614;13.888;2022-09-01T00:24:02;1.40;;;1.30;;
47713;SDS011;33475;46.614;13.888;2022-09-01T00:26:29;1.00;;;1.00;;
47713;SDS011;33475;46.614;13.888;2022-09-01T00:28:55;1.88;;;1.58;;
47713;SDS011;33475;46.614;13.888;2022-09-01T00:31:21;1.30;;;1.20;;
47713;SDS011;33475;46.614;13.888;2022-09-01T00:33:48;2.08;;;1.13;;
47713;SDS011;33475;46.614;13.888;2022-09-01T00:36:15;1.52;;;1.30;;
47713;SDS011;33475;46.614;13.888;2022-09-01T00:38:41;1.42;;;1.33;;
47713;SDS011;33475;46.614;13.888;2022-09-01T00:41:07;1.40;;;1.30;;
47713;SDS011;33475;46.614;13.888;2022-09-01T00:46:07;1.17;;;1.08;;
47713;SDS011;33475;46.614;13.888;2022-09-01T00:48:34;2.58;;;1.10;;
47713;SDS011;33475;46.614;13.888;2022-09-01T00:51:01;1.08;;;0.95;;
47713;SDS011;33475;46.614;13.888;2022-09-01T00:53:28;1.30;;;1.20;;
47713;SDS011;33475;46.614;13.888;2022-09-01T00:55:54;1.40;;;1.27;;
47713;SDS011;33475;46.614;13.888;2022-09-01T00:58:20;1.73;;;1.20;;
47713;SDS011;33475;46.614;13.888;2022-09-01T01:00:47;4.13;;;1.10;;
47713;SDS011;33475;46.614;13.888;2022-09-01T01:03:14;1.20;;;1.10;;
47713;SDS011;33475;46.614;13.888;2022-09-01T01:05:42;1.30;;;1.20;;
47713;SDS011;33475;46.614;13.888;2022-09-01T01:08:10;1.90;;;1.73;;
47713;SDS011;33475;46.614;13.888;2022-09-01T01:10:38;1.40;;;1.30;;
47713;SDS011;33475;46.614;13.888;2022-09-01T01:13:13;1.10;;;1.10;;
47713;SDS011;33475;46.614;13.888;2022-09-01T01:15:40;1.33;;;1.00;;
47713;SDS011;33475;46.614;13.888;2022-09-01T01:18:13;1.00;;;1.00;;
47713;SDS011;33475;46.614;13.888;2022-09-01T01:20:39;1.10;;;1.10;;
47713;SDS011;33475;46.614;13.888;2022-09-01T01:26:23;1.20;;;1.10;;
47713;SDS011;33475;46.614;13.888;2022-09-01T01:28:49;1.10;;;1.10;;
47713;SDS011;33475;46.614;13.888;2022-09-01T01:31:17;1.77;;;1.10;;
47713;SDS011;33475;46.614;13.888;2022-09-01T01:33:50;1.30;;;1.20;;
47713;SDS011;33475;46.614;13.888;2022-09-01T01:36:30;2.92;;;1.10;;
47713;SDS011;33475;46.614;13.888;2022-09-01T01:39:01;2.42;;;1.50;;
47713;SDS011;33475;46.614;13.888;2022-09-01T01:41:29;1.40;;;1.30;;
47713;SDS011;33475;46.614;13.888;2022-09-01T01:43:59;1.92;;;1.60;;
47713;SDS011;33475;46.614;13.888;2022-09-01T01:46:29;1.55;;;1.45;;
47713;SDS011;33475;46.614;13.888;2022-09-01T01:48:56;2.40;;;1.38;;
47713;SDS011;33475;46.614;13.888;2022-09-01T01:51:22;1.45;;;1.35;;
47713;SDS011;33475;46.614;13.888;2022-09-01T01:53:51;1.95;;;1.50;;
47713;SDS011;33475;46.614;13.888;2022-09-01T01:56:19;2.78;;;1.30;;
47713;SDS011;33475;46.614;13.888;2022-09-01T01:58:47;1.67;;;1.42;;
47713;SDS011;33475;46.614;13.888;2022-09-01T02:01:18;1.70;;;1.60;;
47713;SDS011;33475;46.614;13.888;2022-09-01T02:03:46;1.50;;;1.40;;
47713;SDS011;33475;46.614;13.888;2022-09-01T02:06:17;2.03;;;1.50;;
47713;SDS011;33475;46.614;13.888;2022-09-01T02:08:49;1.60;;;1.50;;
47713;SDS011;33475;46.614;13.888;2022-09-01T02:11:16;1.60;;;1.50;;
47713;SDS011;33475;46.614;13.888;2022-09-01T02:13:42;1.80;;;1.70;;
47713;SDS011;33475;46.614;13.888;2022-09-01T02:16:10;1.73;;;1.63;;
47713;SDS011;33475;46.614;13.888;2022-09-01T02:18:38;1.90;;;1.80;;
47713;SDS011;33475;46.614;13.888;2022-09-01T02:21:07;2.33;;;1.60;;
47713;SDS011;33475;46.614;13.888;2022-09-01T02:23:35;2.13;;;2.03;;
47713;SDS011;33475;46.614;13.888;2022-09-01T02:26:03;2.05;;;1.90;;
47713;SDS011;33475;46.614;13.888;2022-09-01T02:28:31;1.83;;;1.73;;
47713;SDS011;33475;46.614;13.888;2022-09-01T02:30:58;2.92;;;2.22;;
47713;SDS011;33475;46.614;13.888;2022-09-01T02:33:26;5.68;;;2.13;;
47713;SDS011;33475;46.614;13.888;2022-09-01T02:35:54;3.50;;;2.03;;
47713;SDS011;33475;46.614;13.888;2022-09-01T02:38:21;1.88;;;1.77;;
47713;SDS011;33475;46.614;13.888;2022-09-01T02:40:50;2.13;;;1.92;;
47713;SDS011;33475;46.614;13.888;2022-09-01T02:43:17;2.78;;;2.00;;
47713;SDS011;33475;46.614;13.888;2022-09-01T02:45:48;2.95;;;2.25;;
47713;SDS011;33475;46.614;13.888;2022-09-01T02:48:16;2.65;;;2.38;;
47713;SDS011;33475;46.614;13.888;2022-09-01T02:50:43;2.15;;;1.90;;
47713;SDS011;33475;46.614;13.888;2022-09-01T02:53:09;2.45;;;2.00;;
47713;SDS011;33475;46.614;13.888;2022-09-01T02:55:36;2.28;;;2.10;;
47713;SDS011;33475;46.614;13.888;2022-09-01T02:58:02;2.00;;;1.80;;
47713;SDS011;33475;46.614;13.888;2022-09-01T03:00:29;6.50;;;2.30;;
47713;SDS011;33475;46.614;13.888;2022-09-01T03:02:58;2.58;;;2.38;;
47713;SDS011;33475;46.614;13.888;2022-09-01T03:05:25;2.78;;;2.45;;
47713;SDS011;33475;46.614;13.888;2022-09-01T03:07:54;3.05;;;2.55;;
47713;SDS011;33475;46.614;13.888;2022-09-01T03:10:23;2.65;;;2.45;;
47713;SDS011;33475;46.614;13.888;2022-09-01T03:12:52;2.88;;;2.67;;
47713;SDS011;33475;46.614;13.888;2022-09-01T03:15:19;4.78;;;2.70;;
47713;SDS011;33475;46.614;13.888;2022-09-01T03:17:45;3.10;;;2.85;;
47713;SDS011;33475;46.614;13.888;2022-09-01T03:20:13;2.85;;;2.65;;
47713;SDS011;33475;46.614;13.888;2022-09-01T03:22:39;3.15;;;2.95;;
47713;SDS011;33475;46.614;13.888;2022-09-01T03:25:05;3.60;;;2.47;;
47713;SDS011;33475;46.614;13.888;2022-09-01T03:27:32;3.05;;;2.70;;
47713;SDS011;33475;46.614;13.888;2022-09-01T03:29:58;4.65;;;2.55;;
47713;SDS011;33475;46.614;13.888;2022-09-01T03:32:24;2.72;;;2.53;;
47713;SDS011;33475;46.614;13.888;2022-09-01T03:34:50;3.22;;;2.75;;
47713;SDS011;33475;46.614;13.888;2022-09-01T03:37:16;4.00;;;2.90;;
47713;SDS011;33475;46.614;13.888;2022-09-01T03:39:44;2.88;;;2.67;;
47713;SDS011;33475;46.614;13.888;2022-09-01T03:42:11;3.15;;;2.78;;
47713;SDS011;33475;46.614;13.888;2022-09-01T03:44:44;3.08;;;2.88;;
47713;SDS011;33475;46.614;13.888;2022-09-01T03:47:10;5.03;;;2.60;;
47713;SDS011;33475;46.614;13.888;2022-09-01T03:49:39;3.70;;;2.83;;
47713;SDS011;33475;46.614;13.888;2022-09-01T03:52:10;2.55;;;2.35;;
47713;SDS011;33475;46.614;13.888;2022-09-01T03:54:37;3.15;;;2.95;;
47713;SDS011;33475;46.614;13.888;2022-09-01T03:57:03;2.33;;;2.13;;
47713;SDS011;33475;46.614;13.888;2022-09-01T03:59:31;3.25;;;2.78;;
47713;SDS011;33475;46.614;13.888;2022-09-01T04:01:58;3.10;;;2.90;;
47713;SDS011;33475;46.614;13.888;2022-09-01T04:04:27;6.03;;;2.58;;
47713;SDS011;33475;46.614;13.888;2022-09-01T04:06:57;3.35;;;3.05;;
47713;SDS011;33475;46.614;13.888;2022-09-01T04:09:24;5.68;;;2.80;;
47713;SDS011;33475;46.614;13.888;2022-09-01T04:11:51;2.97;;;2.78;;
47713;SDS011;33475;46.614;13.888;2022-09-01T04:14:18;4.28;;;2.55;;
47713;SDS011;33475;46.614;13.888;2022-09-01T04:16:44;4.00;;;3.58;;
47713;SDS011;33475;46.614;13.888;2022-09-01T04:19:32;2.90;;;2.70;;
47713;SDS011;33475;46.614;13.888;2022-09-01T04:22:00;3.38;;;2.88;;
47713;SDS011;33475;46.614;13.888;2022-09-01T04:24:28;3.92;;;2.95;;
47713;SDS011;33475;46.614;13.888;2022-09-01T04:26:56;3.08;;;2.80;;
47713;SDS011;33475;46.614;13.888;2022-09-01T04:29:24;3.38;;;3.05;;
47713;SDS011;33475;46.614;13.888;2022-09-01T04:31:54;3.00;;;2.80;;
47713;SDS011;33475;46.614;13.888;2022-09-01T04:34:26;3.58;;;2.80;;
47713;SDS011;33475;46.614;13.888;2022-09-01T04:36:52;3.05;;;2.85;;
47713;SDS011;33475;46.614;13.888;2022-09-01T04:39:19;3.63;;;2.75;;
47713;SDS011;33475;46.614;13.888;2022-09-01T04:41:46;4.10;;;3.13;;
47713;SDS011;33475;46.614;13.888;2022-09-01T04:44:13;3.22;;;2.92;;
47713;SDS011;33475;46.614;13.888;2022-09-01T04:46:43;4.35;;;3.25;;
47713;SDS011;33475;46.614;13.888;2022-09-01T04:49:16;5.20;;;2.80;;
47713;SDS011;33475;46.614;13.888;2022-09-01T04:51:47;6.45;;;3.13;;
47713;SDS011;33475;46.614;13.888;2022-09-01T04:54:14;4.25;;;2.55;;
47713;SDS011;33475;46.614;13.888;2022-09-01T04:56:42;3.03;;;2.30;;
47713;SDS011;33475;46.614;13.888;2022-09-01T04:59:09;2.70;;;2.50;;
47713;SDS011;33475;46.614;13.888;2022-09-01T05:01:36;3.00;;;2.80;;
47713;SDS011;33475;46.614;13.888;2022-09-01T05:04:13;2.50;;;2.00;;
47713;SDS011;33475;46.614;13.888;2022-09-01T05:06:42;2.58;;;2.38;;
47713;SDS011;33475;46.614;13.888;2022-09-01T05:09:09;2.78;;;2.58;;
47713;SDS011;33475;46.614;13.888;2022-09-01T05:11:36;2.47;;;2.20;;
47713;SDS011;33475;46.614;13.888;2022-09-01T05:14:04;1.98;;;1.88;;
47713;SDS011;33475;46.614;13.888;2022-09-01T05:16:31;3.13;;;2.83;;
47713;SDS011;33475;46.614;13.888;2022-09-01T05:18:57;2.40;;;1.98;;
47713;SDS011;33475;46.614;13.888;2022-09-01T05:21:25;2.42;;;2.22;;
47713;SDS011;33475;46.614;13.888;2022-09-01T05:23:54;3.00;;;2.72;;
47713;SDS011;33475;46.614;13.888;2022-09-01T05:26:21;2.40;;;2.20;;
47713;SDS011;33475;46.614;13.888;2022-09-01T05:28:50;2.97;;;2.50;;
47713;SDS011;33475;46.614;13.888;2022-09-01T05:31:18;2.22;;;2.08;;
47713;SDS011;33475;46.614;13.888;2022-09-01T05:33:45;4.30;;;2.58;;
47713;SDS011;33475;46.614;13.888;2022-09-01T05:36:12;2.60;;;2.35;;
47713;SDS011;33475;46.614;13.888;2022-09-01T05:38:40;2.35;;;2.17;;
47713;SDS011;33475;46.614;13.888;2022-09-01T05:41:07;4.13;;;2.22;;
47713;SDS011;33475;46.614;13.888;2022-09-01T05:43:34;3.00;;;2.15;;
47713;SDS011;33475;46.614;13.888;2022-09-01T05:46:05;3.53;;;2.80;;
47713;SDS011;33475;46.614;13.888;2022-09-01T05:48:31;2.53;;;2.33;;
47713;SDS011;33475;46.614;13.888;2022-09-01T05:51:07;2.70;;;2.50;;
47713;SDS011;33475;46.614;13.888;2022-09-01T05:53:34;2.50;;;2.30;;
47713;SDS011;33475;46.614;13.888;2022-09-01T05:56:00;2.95;;;2.75;;
47713;SDS011;33475;46.614;13.888;2022-09-01T05:58:32;2.63;;;2.40;;
47713;SDS011;33475;46.614;13.888;2022-09-01T06:00:59;2.63;;;2.42;;
47713;SDS011;33475;46.614;13.888;2022-09-01T06:03:25;2.25;;;2.05;;
47713;SDS011;33475;46.614;13.888;2022-09-01T06:05:52;3.50;;;2.40;;
47713;SDS011;33475;46.614;13.888;2022-09-01T06:08:23;8.15;;;2.42;;
47713;SDS011;33475;46.614;13.888;2022-09-01T06:10:53;2.58;;;2.38;;
47713;SDS011;33475;46.614;13.888;2022-09-01T06:13:19;2.90;;;2.70;;
47713;SDS011;33475;46.614;13.888;2022-09-01T06:15:49;2.90;;;2.55;;
47713;SDS011;33475;46.614;13.888;2022-09-01T06:18:18;2.90;;;2.63;;
47713;SDS011;33475;46.614;13.888;2022-09-01T06:20:46;2.67;;;2.50;;
47713;SDS011;33475;46.614;13.888;2022-09-01T06:23:13;6.53;;;2.60;;
47713;SDS011;33475;46.614;13.888;2022-09-01T06:25:42;2.13;;;2.03;;
47713;SDS011;33475;46.614;13.888;2022-09-01T06:28:15;3.88;;;2.13;;
47713;SDS011;33475;46.614;13.888;2022-09-01T06:30:44;2.80;;;2.50;;
47713;SDS011;33475;46.614;13.888;2022-09-01T06:33:13;3.05;;;2.63;;
47713;SDS011;33475;46.614;13.888;2022-09-01T06:35:41;2.15;;;2.00;;
47713;SDS011;33475;46.614;13.888;2022-09-01T06:38:10;6.00;;;2.70;;
47713;SDS011;33475;46.614;13.888;2022-09-01T06:40:37;2.60;;;2.40;;
47713;SDS011;33475;46.614;13.888;2022-09-01T06:43:06;2.85;;;2.58;;
47713;SDS011;33475;46.614;13.888;2022-09-01T06:45:37;3.33;;;2.65;;
47713;SDS011;33475;46.614;13.888;2022-09-01T06:48:05;2.53;;;2.33;;
47713;SDS011;33475;46.614;13.888;2022-09-01T06:50:31;2.75;;;2.42;;
47713;SDS011;33475;46.614;13.888;2022-09-01T06:52:57;1.92;;;1.83;;
47713;SDS011;33475;46.614;13.888;2022-09-01T06:55:33;2.17;;;1.90;;
47713;SDS011;33475;46.614;13.888;2022-09-01T06:58:02;5.97;;;2.00;;
47713;SDS011;33475;46.614;13.888;2022-09-01T07:00:31;3.63;;;2.40;;
47713;SDS011;33475;46.614;13.888;2022-09-01T07:02:59;4.40;;;1.80;;
47713;SDS011;33475;46.614;13.888;2022-09-01T07:05:33;4.20;;;1.85;;
47713;SDS011;33475;46.614;13.888;2022-09-01T07:08:01;2.55;;;1.58;;
47713;SDS011;33475;46.614;13.888;2022-09-01T07:10:31;1.88;;;1.67;;
47713;SDS011;33475;46.614;13.888;2022-09-01T07:12:57;1.85;;;1.50;;
47713;SDS011;33475;46.614;13.888;2022-09-01T07:15:25;1.88;;;1.77;;
47713;SDS011;33475;46.614;13.888;2022-09-01T07:17:54;1.40;;;1.30;;
47713;SDS011;33475;46.614;13.888;2022-09-01T07:20:21;1.67;;;1.58;;
47713;SDS011;33475;46.614;13.888;2022-09-01T07:22:48;1.60;;;1.45;;
47713;SDS011;33475;46.614;13.888;2022-09-01T07:25:14;6.63;;;1.25;;
47713;SDS011;33475;46.614;13.888;2022-09-01T07:27:41;1.88;;;1.40;;
47713;SDS011;33475;46.614;13.888;2022-09-01T07:30:16;1.70;;;1.60;;
47713;SDS011;33475;46.614;13.888;2022-09-01T07:32:43;2.13;;;1.40;;
47713;SDS011;33475;46.614;13.888;2022-09-01T07:35:11;1.70;;;1.40;;
47713;SDS011;33475;46.614;13.888;2022-09-01T07:37:37;1.27;;;1.15;;
47713;SDS011;33475;46.614;13.888;2022-09-01T07:40:07;1.20;;;1.10;;
47713;SDS011;33475;46.614;13.888;2022-09-01T07:42:34;1.70;;;1.25;;
47713;SDS011;33475;46.614;13.888;2022-09-01T07:45:03;3.50;;;1.20;;
47713;SDS011;33475;46.614;13.888;2022-09-01T07:47:34;1.20;;;1.10;;
47713;SDS011;33475;46.614;13.888;2022-09-01T07:50:05;1.48;;;1.23;;
47713;SDS011;33475;46.614;13.888;2022-09-01T07:52:36;1.40;;;1.13;;
47713;SDS011;33475;46.614;13.888;2022-09-01T07:55:13;1.70;;;1.48;;
47713;SDS011;33475;46.614;13.888;2022-09-01T07:57:41;1.95;;;1.40;;
47713;SDS011;33475;46.614;13.888;2022-09-01T08:00:08;1.65;;;1.40;;
47713;SDS011;33475;46.614;13.888;2022-09-01T08:02:36;2.03;;;1.60;;
47713;SDS011;33475;46.614;13.888;2022-09-01T08:05:06;1.40;;;1.30;;
47713;SDS011;33475;46.614;13.888;2022-09-01T08:07:36;1.30;;;1.20;;
47713;SDS011;33475;46.614;13.888;2022-09-01T08:10:03;0.88;;;0.88;;
47713;SDS011;33475;46.614;13.888;2022-09-01T08:12:29;1.98;;;1.20;;
47713;SDS011;33475;46.614;13.888;2022-09-01T08:14:55;0.98;;;0.98;;
47713;SDS011;33475;46.614;13.888;2022-09-01T08:17:21;1.45;;;1.10;;
47713;SDS011;33475;46.614;13.888;2022-09-01T08:19:48;1.83;;;1.20;;
47713;SDS011;33475;46.614;13.888;2022-09-01T08:22:14;2.90;;;1.10;;
47713;SDS011;33475;46.614;13.888;2022-09-01T08:24:40;0.82;;;0.82;;
47713;SDS011;33475;46.614;13.888;2022-09-01T08:27:07;1.05;;;0.95;;
47713;SDS011;33475;46.614;13.888;2022-09-01T08:29:33;3.38;;;1.30;;
47713;SDS011;33475;46.614;13.888;2022-09-01T08:31:59;0.90;;;0.75;;
47713;SDS011;33475;46.614;13.888;2022-09-01T08:34:26;3.58;;;0.82;;
47713;SDS011;33475;46.614;13.888;2022-09-01T08:36:53;1.08;;;1.00;;
47713;SDS011;33475;46.614;13.888;2022-09-01T08:39:19;0.93;;;0.90;;
47713;SDS011;33475;46.614;13.888;2022-09-01T08:44:40;0.82;;;0.80;;
47713;SDS011;33475;46.614;13.888;2022-09-01T08:47:11;3.15;;;0.95;;
47713;SDS011;33475;46.614;13.888;2022-09-01T08:49:39;0.80;;;0.70;;
47713;SDS011;33475;46.614;13.888;2022-09-01T08:57:35;1.40;;;1.00;;
47713;SDS011;33475;46.614;13.888;2022-09-01T09:00:06;1.75;;;1.08;;
47713;SDS011;33475;46.614;13.888;2022-09-01T09:05:30;1.60;;;1.33;;
47713;SDS011;33475;46.614;13.888;2022-09-01T09:10:31;1.00;;;0.82;;
47713;SDS011;33475;46.614;13.888;2022-09-01T09:13:10;1.17;;;1.08;;
47713;SDS011;33475;46.614;13.888;2022-09-01T09:15:43;0.90;;;0.90;;
47713;SDS011;33475;46.614;13.888;2022-09-01T09:18:15;6.47;;;0.98;;
47713;SDS011;33475;46.614;13.888;2022-09-01T09:20:42;0.82;;;0.80;;
47713;SDS011;33475;46.614;13.888;2022-09-01T09:23:14;2.67;;;1.08;;
47713;SDS011;33475;46.614;13.888;2022-09-01T09:25:42;0.73;;;0.73;;
47713;SDS011;33475;46.614;13.888;2022-09-01T09:28:08;1.30;;;1.00;;
47713;SDS011;33475;46.614;13.888;2022-09-01T09:30:34;1.02;;;0.90;;
47713;SDS011;33475;46.614;13.888;2022-09-01T09:33:10;1.92;;;1.20;;
47713;SDS011;33475;46.614;13.888;2022-09-01T09:35:48;2.28;;;0.85;;
47713;SDS011;33475;46.614;13.888;2022-09-01T09:38:16;1.40;;;0.75;;
47713;SDS011;33475;46.614;13.888;2022-09-01T09:43:37;1.52;;;0.80;;
47713;SDS011;33475;46.614;13.888;2022-09-01T09:46:22;0.68;;;0.68;;
47713;SDS011;33475;46.614;13.888;2022-09-01T09:49:12;5.88;;;0.90;;
47713;SDS011;33475;46.614;13.888;2022-09-01T09:51:35;6.90;;;0.80;;
47713;SDS011;33475;46.614;13.888;2022-09-01T09:54:16;0.90;;;0.90;;
47713;SDS011;33475;46.614;13.888;2022-09-01T09:56:43;0.98;;;0.70;;
47713;SDS011;33475;46.614;13.888;2022-09-01T09:59:29;1.08;;;0.82;;
47713;SDS011;33475;46.614;13.888;2022-09-01T10:01:57;0.80;;;0.80;;
47713;SDS011;33475;46.614;13.888;2022-09-01T10:04:34;1.10;;;0.80;;
47713;SDS011;33475;46.614;13.888;2022-09-01T10:07:01;1.23;;;0.90;;
47713;SDS011;33475;46.614;13.888;2022-09-01T10:09:47;0.60;;;0.60;;
47713;SDS011;33475;46.614;13.888;2022-09-01T10:12:13;1.50;;;1.23;;
47713;SDS011;33475;46.614;13.888;2022-09-01T10:14:40;0.65;;;0.63;;
47713;SDS011;33475;46.614;13.888;2022-09-01T10:17:10;0.80;;;0.80;;
47713;SDS011;33475;46.614;13.888;2022-09-01T10:19:37;2.45;;;0.90;;
47713;SDS011;33475;46.614;13.888;2022-09-01T10:22:06;0.85;;;0.85;;
47713;SDS011;33475;46.614;13.888;2022-09-01T10:24:35;1.00;;;0.85;;
47713;SDS011;33475;46.614;13.888;2022-09-01T10:27:02;1.23;;;1.00;;
47713;SDS011;33475;46.614;13.888;2022-09-01T10:29:35;0.70;;;0.70;;
47713;SDS011;33475;46.614;13.888;2022-09-01T10:32:06;1.30;;;0.77;;
47713;SDS011;33475;46.614;13.888;2022-09-01T10:34:34;2.17;;;2.08;;
47713;SDS011;33475;46.614;13.888;2022-09-01T10:37:01;1.73;;;1.05;;
47713;SDS011;33475;46.614;13.888;2022-09-01T10:39:28;0.73;;;0.73;;
47713;SDS011;33475;46.614;13.888;2022-09-01T10:41:54;0.60;;;0.60;;
47713;SDS011;33475;46.614;13.888;2022-09-01T10:44:29;1.00;;;0.60;;
47713;SDS011;33475;46.614;13.888;2022-09-01T10:47:00;1.40;;;0.73;;
47713;SDS011;33475;46.614;13.888;2022-09-01T10:51:53;1.58;;;0.93;;
47713;SDS011;33475;46.614;13.888;2022-09-01T10:59:30;1.58;;;1.30;;
47713;SDS011;33475;46.614;13.888;2022-09-01T11:02:10;1.08;;;0.98;;
47713;SDS011;33475;46.614;13.888;2022-09-01T11:09:45;2.85;;;0.80;;
47713;SDS011;33475;46.614;13.888;2022-09-01T11:17:30;0.93;;;0.80;;
47713;SDS011;33475;46.614;13.888;2022-09-01T11:25:07;0.60;;;0.60;;
47713;SDS011;33475;46.614;13.888;2022-09-01T11:30:16;3.28;;;1.00;;
47713;SDS011;33475;46.614;13.888;2022-09-01T11:32:45;0.63;;;0.63;;
47713;SDS011;33475;46.614;13.888;2022-09-01T11:35:14;0.82;;;0.80;;
47713;SDS011;33475;46.614;13.888;2022-09-01T11:37:42;1.02;;;0.60;;
47713;SDS011;33475;46.614;13.888;2022-09-01T11:40:12;1.38;;;1.23;;
47713;SDS011;33475;46.614;13.888;2022-09-01T11:42:45;0.73;;;0.63;;
47713;SDS011;33475;46.614;13.888;2022-09-01T11:45:15;2.67;;;1.40;;
47713;SDS011;33475;46.614;13.888;2022-09-01T11:47:49;2.33;;;0.90;;
47713;SDS011;33475;46.614;13.888;2022-09-01T11:57:59;0.80;;;0.80;;
47713;SDS011;33475;46.614;13.888;2022-09-01T12:00:30;1.73;;;0.75;;
47713;SDS011;33475;46.614;13.888;2022-09-01T12:02:56;0.60;;;0.60;;
47713;SDS011;33475;46.614;13.888;2022-09-01T12:07:50;1.30;;;0.98;;
47713;SDS011;33475;46.614;13.888;2022-09-01T12:15:31;1.15;;;0.90;;
47713;SDS011;33475;46.614;13.888;2022-09-01T12:18:13;3.92;;;0.88;;
47713;SDS011;33475;46.614;13.888;2022-09-01T12:20:43;0.90;;;0.90;;
47713;SDS011;33475;46.614;13.888;2022-09-01T12:25:52;1.15;;;1.05;;
47713;SDS011;33475;46.614;13.888;2022-09-01T12:28:20;1.33;;;1.20;;
47713;SDS011;33475;46.614;13.888;2022-09-01T12:30:48;1.15;;;1.00;;
47713;SDS011;33475;46.614;13.888;2022-09-01T12:33:16;2.85;;;1.30;;
47713;SDS011;33475;46.614;13.888;2022-09-01T12:35:44;1.13;;;1.02;;
47713;SDS011;33475;46.614;13.888;2022-09-01T12:40:46;0.90;;;0.90;;
47713;SDS011;33475;46.614;13.888;2022-09-01T12:43:33;2.25;;;1.00;;
47713;SDS011;33475;46.614;13.888;2022-09-01T12:46:00;1.10;;;0.98;;
47713;SDS011;33475;46.614;13.888;2022-09-01T12:50:55;1.58;;;1.00;;
47713;SDS011;33475;46.614;13.888;2022-09-01T12:53:23;1.20;;;0.98;;
47713;SDS011;33475;46.614;13.888;2022-09-01T12:55:56;2.10;;;1.17;;
47713;SDS011;33475;46.614;13.888;2022-09-01T12:58:24;2.65;;;0.98;;
47713;SDS011;33475;46.614;13.888;2022-09-01T13:01:26;2.95;;;0.80;;
47713;SDS011;33475;46.614;13.888;2022-09-01T13:04:04;1.67;;;1.00;;
47713;SDS011;33475;46.614;13.888;2022-09-01T13:06:30;0.80;;;0.80;;
47713;SDS011;33475;46.614;13.888;2022-09-01T13:08:56;2.65;;;0.80;;
47713;SDS011;33475;46.614;13.888;2022-09-01T13:11:22;2.28;;;0.70;;
47713;SDS011;33475;46.614;13.888;2022-09-01T13:13:48;3.33;;;0.93;;
47713;SDS011;33475;46.614;13.888;2022-09-01T13:16:14;1.33;;;0.90;;
47713;SDS011;33475;46.614;13.888;2022-09-01T13:18:41;1.40;;;1.00;;
47713;SDS011;33475;46.614;13.888;2022-09-01T13:21:07;2.17;;;0.90;;
47713;SDS011;33475;46.614;13.888;2022-09-01T13:23:34;1.08;;;0.85;;
47713;SDS011;33475;46.614;13.888;2022-09-01T13:26:01;1.00;;;0.80;;
47713;SDS011;33475;46.614;13.888;2022-09-01T13:28:28;1.00;;;0.90;;
47713;SDS011;33475;46.614;13.888;2022-09-01T13:30:57;1.60;;;1.13;;
47713;SDS011;33475;46.614;13.888;2022-09-01T13:33:24;0.90;;;0.80;;
47713;SDS011;33475;46.614;13.888;2022-09-01T13:35:50;0.88;;;0.88;;
47713;SDS011;33475;46.614;13.888;2022-09-01T13:38:16;1.83;;;1.00;;
47713;SDS011;33475;46.614;13.888;2022-09-01T13:40:43;1.00;;;0.90;;
47713;SDS011;33475;46.614;13.888;2022-09-01T13:43:11;1.52;;;1.00;;
47713;SDS011;33475;46.614;13.888;2022-09-01T13:45:37;0.90;;;0.85;;
47713;SDS011;33475;46.614;13.888;2022-09-01T13:48:05;1.13;;;0.80;;
47713;SDS011;33475;46.614;13.888;2022-09-01T13:50:32;3.75;;;1.05;;
47713;SDS011;33475;46.614;13.888;2022-09-01T13:52:58;2.20;;;1.20;;
47713;SDS011;33475;46.614;13.888;2022-09-01T13:55:26;4.22;;;1.17;;
47713;SDS011;33475;46.614;13.888;2022-09-01T13:57:52;2.88;;;1.60;;
47713;SDS011;33475;46.614;13.888;2022-09-01T14:00:23;2.45;;;1.10;;
47713;SDS011;33475;46.614;13.888;2022-09-01T14:02:51;1.35;;;1.25;;
47713;SDS011;33475;46.614;13.888;2022-09-01T14:05:19;2.25;;;1.20;;
47713;SDS011;33475;46.614;13.888;2022-09-01T14:07:45;1.15;;;1.05;;
47713;SDS011;33475;46.614;13.888;2022-09-01T14:10:13;1.80;;;1.15;;
47713;SDS011;33475;46.614;13.888;2022-09-01T14:12:40;0.88;;;0.88;;
47713;SDS011;33475;46.614;13.888;2022-09-01T14:15:07;1.10;;;1.00;;
47713;SDS011;33475;46.614;13.888;2022-09-01T14:17:34;0.90;;;0.90;;
47713;SDS011;33475;46.614;13.888;2022-09-01T14:20:00;5.97;;;1.35;;
47713;SDS011;33475;46.614;13.888;2022-09-01T14:22:27;1.27;;;0.93;;
47713;SDS011;33475;46.614;13.888;2022-09-01T14:24:54;3.58;;;0.85;;
47713;SDS011;33475;46.614;13.888;2022-09-01T14:27:20;3.33;;;1.02;;
47713;SDS011;33475;46.614;13.888;2022-09-01T14:29:50;1.88;;;0.90;;
47713;SDS011;33475;46.614;13.888;2022-09-01T14:32:17;2.25;;;0.70;;
47713;SDS011;33475;46.614;13.888;2022-09-01T14:34:46;0.90;;;0.88;;
47713;SDS011;33475;46.614;13.888;2022-09-01T14:37:14;1.10;;;1.00;;
47713;SDS011;33475;46.614;13.888;2022-09-01T14:39:40;1.05;;;0.98;;
47713;SDS011;33475;46.614;13.888;2022-09-01T14:42:07;1.65;;;1.13;;
47713;SDS011;33475;46.614;13.888;2022-09-01T14:44:36;1.92;;;1.23;;
47713;SDS011;33475;46.614;13.888;2022-09-01T14:47:03;2.50;;;1.02;;
47713;SDS011;33475;46.614;13.888;2022-09-01T14:49:32;2.42;;;1.88;;
47713;SDS011;33475;46.614;13.888;2022-09-01T14:52:01;0.90;;;0.80;;
47713;SDS011;33475;46.614;13.888;2022-09-01T14:54:30;5.22;;;1.00;;
47713;SDS011;33475;46.614;13.888;2022-09-01T14:56:56;3.22;;;1.30;;
47713;SDS011;33475;46.614;13.888;2022-09-01T14:59:22;1.38;;;1.27;;
47713;SDS011;33475;46.614;13.888;2022-09-01T15:01:48;1.13;;;1.10;;
47713;SDS011;33475;46.614;13.888;2022-09-01T15:04:14;1.00;;;0.98;;
47713;SDS011;33475;46.614;13.888;2022-09-01T15:06:40;1.50;;;1.15;;
47713;SDS011;33475;46.614;13.888;2022-09-01T15:09:06;1.38;;;0.80;;
47713;SDS011;33475;46.614;13.888;2022-09-01T15:11:33;1.20;;;1.10;;
47713;SDS011;33475;46.614;13.888;2022-09-01T15:13:59;1.00;;;1.00;;
47713;SDS011;33475;46.614;13.888;2022-09-01T15:16:25;1.17;;;1.08;;
47713;SDS011;33475;46.614;13.888;2022-09-01T15:18:52;1.33;;;1.23;;
47713;SDS011;33475;46.614;13.888;2022-09-01T15:21:24;1.67;;;1.20;;
47713;SDS011;33475;46.614;13.888;2022-09-01T15:23:51;1.35;;;1.25;;
47713;SDS011;33475;46.614;13.888;2022-09-01T15:26:18;1.27;;;1.17;;
47713;SDS011;33475;46.614;13.888;2022-09-01T15:28:44;1.70;;;1.05;;
47713;SDS011;33475;46.614;13.888;2022-09-01T15:31:11;0.90;;;0.90;;
47713;SDS011;33475;46.614;13.888;2022-09-01T15:33:38;1.20;;;1.10;;
47713;SDS011;33475;46.614;13.888;2022-09-01T15:36:05;4.03;;;0.98;;
47713;SDS011;33475;46.614;13.888;2022-09-01T15:38:31;1.92;;;1.20;;
47713;SDS011;33475;46.614;13.888;2022-09-01T15:40:57;2.35;;;0.95;;
47713;SDS011;33475;46.614;13.888;2022-09-01T15:43:28;2.22;;;1.27;;
47713;SDS011;33475;46.614;13.888;2022-09-01T15:45:56;1.65;;;1.35;;
47713;SDS011;33475;46.614;13.888;2022-09-01T15:48:25;2.28;;;1.80;;
47713;SDS011;33475;46.614;13.888;2022-09-01T15:50:52;4.00;;;1.30;;
47713;SDS011;33475;46.614;13.888;2022-09-01T15:53:18;6.47;;;1.23;;